sensor_id;sensor_type;location;lat;lon;timestamp;temperature;humidity
48876;DHT22;34689;51.644;5.618;2022-12-20T00:00:46;9.40;99.90
48876;DHT22;34689;51.644;5.618;2022-12-20T00:03:11;9.50;99.90
48876;DHT22;34689;51.644;5.618;2022-12-20T00:05:38;9.40;99.90
48876;DHT22;34689;51.644;5.618;2022-12-20T00:08:04;9.40;99.90
48876;DHT22;34689;51.644;5.618;2022-12-20T00:10:30;9.50;99.90
48876;DHT22;34689;51.644;5.618;2022-12-20T00:13:01;9.50;99.90
48876;DHT22;34689;51.644;5.618;2022-12-20T00:15:29;9.50;99.90
48876;DHT22;34689;51.644;5.618;2022-12-20T00:17:56;9.60;99.90
48876;DHT22;34689;51.644;5.618;2022-12-20T00:20:22;9.60;99.90
48876;DHT22;34689;51.644;5.618;2022-12-20T00:22:47;9.60;99.90
48876;DHT22;34689;51.644;5.618;2022-12-20T00:25:13;9.60;99.90
48876;DHT22;34689;51.644;5.618;2022-12-20T00:27:38;9.60;99.90
48876;DHT22;34689;51.644;5.618;2022-12-20T00:30:05;9.60;99.90
48876;DHT22;34689;51.644;5.618;2022-12-20T00:32:31;9.60;99.90
48876;DHT22;34689;51.644;5.618;2022-12-20T00:34:56;9.70;99.90
48876;DHT22;34689;51.644;5.618;2022-12-20T00:37:22;9.70;99.90
48876;DHT22;34689;51.644;5.618;2022-12-20T00:39:47;9.70;99.90
48876;DHT22;34689;51.644;5.618;2022-12-20T00:42:13;9.80;99.90
48876;DHT22;34689;51.644;5.618;2022-12-20T00:44:40;9.80;99.90
48876;DHT22;34689;51.644;5.618;2022-12-20T00:47:06;9.80;99.90
48876;DHT22;34689;51.644;5.618;2022-12-20T00:49:31;9.80;99.90
48876;DHT22;34689;51.644;5.618;2022-12-20T00:51:57;9.80;99.90
48876;DHT22;34689;51.644;5.618;2022-12-20T00:54:23;9.80;99.90
48876;DHT22;34689;51.644;5.618;2022-12-20T00:56:48;9.80;99.90
48876;DHT22;34689;51.644;5.618;2022-12-20T00:59:14;9.80;99.90
48876;DHT22;34689;51.644;5.618;2022-12-20T01:01:40;9.80;99.90
48876;DHT22;34689;51.644;5.618;2022-12-20T01:04:06;9.80;99.90
48876;DHT22;34689;51.644;5.618;2022-12-20T01:06:32;9.90;99.90
48876;DHT22;34689;51.644;5.618;2022-12-20T01:08:58;9.90;99.90
48876;DHT22;34689;51.644;5.618;2022-12-20T01:11:27;9.80;99.90
48876;DHT22;34689;51.644;5.618;2022-12-20T01:13:55;9.90;99.90
48876;DHT22;34689;51.644;5.618;2022-12-20T01:16:24;9.90;99.90
48876;DHT22;34689;51.644;5.618;2022-12-20T01:18:50;9.90;99.90
48876;DHT22;34689;51.644;5.618;2022-12-20T01:21:17;9.90;99.90
48876;DHT22;34689;51.644;5.618;2022-12-20T01:23:44;10.00;99.90
48876;DHT22;34689;51.644;5.618;2022-12-20T01:26:12;10.00;99.90
48876;DHT22;34689;51.644;5.618;2022-12-20T01:28:41;10.00;99.90
48876;DHT22;34689;51.644;5.618;2022-12-20T01:31:08;10.10;99.90
48876;DHT22;34689;51.644;5.618;2022-12-20T01:33:35;10.00;99.90
48876;DHT22;34689;51.644;5.618;2022-12-20T01:36:04;10.00;99.90
48876;DHT22;34689;51.644;5.618;2022-12-20T01:38:31;10.00;99.90
48876;DHT22;34689;51.644;5.618;2022-12-20T01:40:57;9.90;99.90
48876;DHT22;34689;51.644;5.618;2022-12-20T01:43:24;9.90;99.90
48876;DHT22;34689;51.644;5.618;2022-12-20T01:45:50;9.90;99.90
48876;DHT22;34689;51.644;5.618;2022-12-20T01:48:22;9.90;99.90
48876;DHT22;34689;51.644;5.618;2022-12-20T01:50:49;10.00;99.90
48876;DHT22;34689;51.644;5.618;2022-12-20T01:53:17;10.00;99.90
48876;DHT22;34689;51.644;5.618;2022-12-20T01:55:45;10.00;99.90
48876;DHT22;34689;51.644;5.618;2022-12-20T01:58:13;9.90;99.90
48876;DHT22;34689;51.644;5.618;2022-12-20T02:00:40;9.90;99.90
48876;DHT22;34689;51.644;5.618;2022-12-20T02:03:09;9.80;99.90
48876;DHT22;34689;51.644;5.618;2022-12-20T02:05:38;9.80;99.90
48876;DHT22;34689;51.644;5.618;2022-12-20T02:08:04;9.70;99.90
48876;DHT22;34689;51.644;5.618;2022-12-20T02:16:27;9.70;99.90
48876;DHT22;34689;51.644;5.618;2022-12-20T02:19:00;9.60;99.90
48876;DHT22;34689;51.644;5.618;2022-12-20T02:32:24;9.60;99.90
48876;DHT22;34689;51.644;5.618;2022-12-20T02:34:51;9.50;99.90
48876;DHT22;34689;51.644;5.618;2022-12-20T02:37:17;9.50;99.90
48876;DHT22;34689;51.644;5.618;2022-12-20T02:39:43;9.50;99.90
48876;DHT22;34689;51.644;5.618;2022-12-20T02:42:12;9.50;99.90
48876;DHT22;34689;51.644;5.618;2022-12-20T02:44:45;9.50;99.90
48876;DHT22;34689;51.644;5.618;2022-12-20T02:48:01;9.50;99.90
48876;DHT22;34689;51.644;5.618;2022-12-20T02:50:41;9.50;99.90
48876;DHT22;34689;51.644;5.618;2022-12-20T02:53:09;9.50;99.90
48876;DHT22;34689;51.644;5.618;2022-12-20T02:55:47;9.40;99.90
48876;DHT22;34689;51.644;5.618;2022-12-20T03:01:06;9.50;99.90
48876;DHT22;34689;51.644;5.618;2022-12-20T03:03:33;9.50;99.90
48876;DHT22;34689;51.644;5.618;2022-12-20T03:06:00;9.50;99.90
48876;DHT22;34689;51.644;5.618;2022-12-20T03:08:26;9.50;99.90
48876;DHT22;34689;51.644;5.618;2022-12-20T03:10:53;9.50;99.90
48876;DHT22;34689;51.644;5.618;2022-12-20T03:13:21;9.50;99.90
48876;DHT22;34689;51.644;5.618;2022-12-20T03:15:46;9.50;99.90
48876;DHT22;34689;51.644;5.618;2022-12-20T03:18:12;9.60;99.90
48876;DHT22;34689;51.644;5.618;2022-12-20T03:20:38;9.60;99.90
48876;DHT22;34689;51.644;5.618;2022-12-20T03:23:05;9.60;99.90
48876;DHT22;34689;51.644;5.618;2022-12-20T03:25:30;9.60;99.90
48876;DHT22;34689;51.644;5.618;2022-12-20T03:27:56;9.60;99.90
48876;DHT22;34689;51.644;5.618;2022-12-20T03:30:22;9.60;99.90
48876;DHT22;34689;51.644;5.618;2022-12-20T03:32:47;9.60;99.90
48876;DHT22;34689;51.644;5.618;2022-12-20T03:35:13;9.70;99.90
48876;DHT22;34689;51.644;5.618;2022-12-20T03:37:39;9.70;99.90
48876;DHT22;34689;51.644;5.618;2022-12-20T03:40:06;9.80;99.90
48876;DHT22;34689;51.644;5.618;2022-12-20T03:42:32;9.80;99.90
48876;DHT22;34689;51.644;5.618;2022-12-20T03:44:57;9.80;99.90
48876;DHT22;34689;51.644;5.618;2022-12-20T03:47:23;9.90;99.90
48876;DHT22;34689;51.644;5.618;2022-12-20T03:49:49;9.90;99.90
48876;DHT22;34689;51.644;5.618;2022-12-20T03:52:16;9.90;99.90
48876;DHT22;34689;51.644;5.618;2022-12-20T03:54:42;10.00;99.90
48876;DHT22;34689;51.644;5.618;2022-12-20T03:57:08;9.90;99.90
48876;DHT22;34689;51.644;5.618;2022-12-20T03:59:33;10.00;99.90
48876;DHT22;34689;51.644;5.618;2022-12-20T04:02:00;10.00;99.90
48876;DHT22;34689;51.644;5.618;2022-12-20T04:04:26;10.00;99.90
48876;DHT22;34689;51.644;5.618;2022-12-20T04:06:52;10.10;99.90
48876;DHT22;34689;51.644;5.618;2022-12-20T04:09:17;10.10;99.90
48876;DHT22;34689;51.644;5.618;2022-12-20T04:11:43;10.10;99.90
48876;DHT22;34689;51.644;5.618;2022-12-20T04:14:09;10.10;99.90
48876;DHT22;34689;51.644;5.618;2022-12-20T04:16:35;10.20;99.90
48876;DHT22;34689;51.644;5.618;2022-12-20T04:19:01;10.20;99.90
48876;DHT22;34689;51.644;5.618;2022-12-20T04:21:29;10.30;99.90
48876;DHT22;34689;51.644;5.618;2022-12-20T04:23:55;10.30;99.90
48876;DHT22;34689;51.644;5.618;2022-12-20T04:26:22;10.30;99.90
48876;DHT22;34689;51.644;5.618;2022-12-20T04:28:47;10.30;99.90
48876;DHT22;34689;51.644;5.618;2022-12-20T04:31:13;10.40;99.90
48876;DHT22;34689;51.644;5.618;2022-12-20T04:33:39;10.30;99.90
48876;DHT22;34689;51.644;5.618;2022-12-20T04:36:05;10.40;99.90
48876;DHT22;34689;51.644;5.618;2022-12-20T04:38:31;10.40;99.90
48876;DHT22;34689;51.644;5.618;2022-12-20T04:40:58;10.40;99.90
48876;DHT22;34689;51.644;5.618;2022-12-20T04:43:24;10.40;99.90
48876;DHT22;34689;51.644;5.618;2022-12-20T04:45:54;10.40;99.90
48876;DHT22;34689;51.644;5.618;2022-12-20T04:48:25;10.40;99.90
48876;DHT22;34689;51.644;5.618;2022-12-20T04:50:54;10.40;99.90
48876;DHT22;34689;51.644;5.618;2022-12-20T04:53:21;10.40;99.90
48876;DHT22;34689;51.644;5.618;2022-12-20T04:56:06;10.40;99.90
48876;DHT22;34689;51.644;5.618;2022-12-20T04:58:31;10.50;99.90
48876;DHT22;34689;51.644;5.618;2022-12-20T05:00:57;10.40;99.90
48876;DHT22;34689;51.644;5.618;2022-12-20T05:03:24;10.50;99.90
48876;DHT22;34689;51.644;5.618;2022-12-20T05:05:50;10.50;99.90
48876;DHT22;34689;51.644;5.618;2022-12-20T05:08:16;10.50;99.90
48876;DHT22;34689;51.644;5.618;2022-12-20T05:10:42;10.50;99.90
48876;DHT22;34689;51.644;5.618;2022-12-20T05:13:08;10.50;99.90
48876;DHT22;34689;51.644;5.618;2022-12-20T05:15:34;10.50;99.90
48876;DHT22;34689;51.644;5.618;2022-12-20T05:18:00;10.50;99.90
48876;DHT22;34689;51.644;5.618;2022-12-20T05:20:26;10.50;99.90
48876;DHT22;34689;51.644;5.618;2022-12-20T05:22:52;10.50;99.90
48876;DHT22;34689;51.644;5.618;2022-12-20T05:25:38;10.50;99.90
48876;DHT22;34689;51.644;5.618;2022-12-20T05:28:23;10.50;99.90
48876;DHT22;34689;51.644;5.618;2022-12-20T05:30:51;10.50;99.90
48876;DHT22;34689;51.644;5.618;2022-12-20T05:33:17;10.50;99.90
48876;DHT22;34689;51.644;5.618;2022-12-20T05:35:42;10.60;99.90
48876;DHT22;34689;51.644;5.618;2022-12-20T05:38:08;10.60;99.90
48876;DHT22;34689;51.644;5.618;2022-12-20T05:40:34;10.60;99.90
48876;DHT22;34689;51.644;5.618;2022-12-20T05:43:00;10.60;99.90
48876;DHT22;34689;51.644;5.618;2022-12-20T05:45:25;10.60;99.90
48876;DHT22;34689;51.644;5.618;2022-12-20T05:47:51;10.50;99.90
48876;DHT22;34689;51.644;5.618;2022-12-20T05:50:17;10.60;99.90
48876;DHT22;34689;51.644;5.618;2022-12-20T05:52:43;10.50;99.90
48876;DHT22;34689;51.644;5.618;2022-12-20T05:55:08;10.50;99.90
48876;DHT22;34689;51.644;5.618;2022-12-20T05:57:34;10.50;99.90
48876;DHT22;34689;51.644;5.618;2022-12-20T06:00:01;10.50;99.90
48876;DHT22;34689;51.644;5.618;2022-12-20T06:02:27;10.50;99.90
48876;DHT22;34689;51.644;5.618;2022-12-20T06:04:52;10.50;99.90
48876;DHT22;34689;51.644;5.618;2022-12-20T06:07:18;10.50;99.90
48876;DHT22;34689;51.644;5.618;2022-12-20T06:09:44;10.40;99.90
48876;DHT22;34689;51.644;5.618;2022-12-20T06:12:09;10.40;99.90
48876;DHT22;34689;51.644;5.618;2022-12-20T06:14:35;10.40;99.90
48876;DHT22;34689;51.644;5.618;2022-12-20T06:17:01;10.40;99.90
48876;DHT22;34689;51.644;5.618;2022-12-20T06:19:27;10.40;99.90
48876;DHT22;34689;51.644;5.618;2022-12-20T06:21:52;10.40;99.90
48876;DHT22;34689;51.644;5.618;2022-12-20T06:24:18;10.40;99.90
48876;DHT22;34689;51.644;5.618;2022-12-20T06:26:44;10.30;99.90
48876;DHT22;34689;51.644;5.618;2022-12-20T06:29:09;10.30;99.90
48876;DHT22;34689;51.644;5.618;2022-12-20T06:31:39;10.40;99.90
48876;DHT22;34689;51.644;5.618;2022-12-20T06:34:05;10.30;99.90
48876;DHT22;34689;51.644;5.618;2022-12-20T06:36:31;10.30;99.90
48876;DHT22;34689;51.644;5.618;2022-12-20T06:38:59;10.30;99.90
48876;DHT22;34689;51.644;5.618;2022-12-20T06:41:25;10.30;99.90
48876;DHT22;34689;51.644;5.618;2022-12-20T06:43:51;10.30;99.90
48876;DHT22;34689;51.644;5.618;2022-12-20T06:46:16;10.30;99.90
48876;DHT22;34689;51.644;5.618;2022-12-20T06:48:44;10.30;99.90
48876;DHT22;34689;51.644;5.618;2022-12-20T06:51:10;10.30;99.90
48876;DHT22;34689;51.644;5.618;2022-12-20T06:53:36;10.20;99.90
48876;DHT22;34689;51.644;5.618;2022-12-20T06:56:01;10.20;99.90
48876;DHT22;34689;51.644;5.618;2022-12-20T06:58:27;10.20;99.90
48876;DHT22;34689;51.644;5.618;2022-12-20T07:00:53;10.30;99.90
48876;DHT22;34689;51.644;5.618;2022-12-20T07:03:19;10.20;99.90
48876;DHT22;34689;51.644;5.618;2022-12-20T07:05:50;10.20;99.90
48876;DHT22;34689;51.644;5.618;2022-12-20T07:08:18;10.20;99.90
48876;DHT22;34689;51.644;5.618;2022-12-20T07:10:43;10.20;99.90
48876;DHT22;34689;51.644;5.618;2022-12-20T07:13:09;10.20;99.90
48876;DHT22;34689;51.644;5.618;2022-12-20T07:15:35;10.20;99.90
48876;DHT22;34689;51.644;5.618;2022-12-20T07:18:01;10.20;99.90
48876;DHT22;34689;51.644;5.618;2022-12-20T07:20:27;10.20;99.90
48876;DHT22;34689;51.644;5.618;2022-12-20T07:22:53;10.30;99.90
48876;DHT22;34689;51.644;5.618;2022-12-20T07:25:19;10.20;99.90
48876;DHT22;34689;51.644;5.618;2022-12-20T07:27:50;10.30;99.90
48876;DHT22;34689;51.644;5.618;2022-12-20T07:30:17;10.30;99.90
48876;DHT22;34689;51.644;5.618;2022-12-20T07:32:43;10.30;99.90
48876;DHT22;34689;51.644;5.618;2022-12-20T07:35:13;10.30;99.90
48876;DHT22;34689;51.644;5.618;2022-12-20T07:37:39;10.30;99.90
48876;DHT22;34689;51.644;5.618;2022-12-20T07:40:06;10.30;99.90
48876;DHT22;34689;51.644;5.618;2022-12-20T07:42:32;10.30;99.90
48876;DHT22;34689;51.644;5.618;2022-12-20T07:44:58;10.40;99.90
48876;DHT22;34689;51.644;5.618;2022-12-20T07:47:23;10.40;99.90
48876;DHT22;34689;51.644;5.618;2022-12-20T07:49:49;10.40;99.90
48876;DHT22;34689;51.644;5.618;2022-12-20T07:52:16;10.40;99.90
48876;DHT22;34689;51.644;5.618;2022-12-20T07:54:49;10.50;99.90
48876;DHT22;34689;51.644;5.618;2022-12-20T07:57:21;10.40;99.90
48876;DHT22;34689;51.644;5.618;2022-12-20T07:59:54;10.50;99.90
48876;DHT22;34689;51.644;5.618;2022-12-20T08:02:38;10.50;99.90
48876;DHT22;34689;51.644;5.618;2022-12-20T08:05:07;10.50;99.90
48876;DHT22;34689;51.644;5.618;2022-12-20T08:07:35;10.50;99.90
48876;DHT22;34689;51.644;5.618;2022-12-20T08:10:04;10.50;99.90
48876;DHT22;34689;51.644;5.618;2022-12-20T08:12:30;10.50;99.90
48876;DHT22;34689;51.644;5.618;2022-12-20T08:14:56;10.50;99.90
48876;DHT22;34689;51.644;5.618;2022-12-20T08:17:22;10.50;99.90
48876;DHT22;34689;51.644;5.618;2022-12-20T08:19:48;10.50;99.90
48876;DHT22;34689;51.644;5.618;2022-12-20T08:22:17;10.50;99.90
48876;DHT22;34689;51.644;5.618;2022-12-20T08:24:46;10.50;99.90
48876;DHT22;34689;51.644;5.618;2022-12-20T08:27:12;10.50;99.90
48876;DHT22;34689;51.644;5.618;2022-12-20T08:29:38;10.50;99.90
48876;DHT22;34689;51.644;5.618;2022-12-20T08:32:03;10.50;99.90
48876;DHT22;34689;51.644;5.618;2022-12-20T08:34:31;10.50;99.90
48876;DHT22;34689;51.644;5.618;2022-12-20T08:36:58;10.50;99.90
48876;DHT22;34689;51.644;5.618;2022-12-20T08:39:24;10.50;99.90
48876;DHT22;34689;51.644;5.618;2022-12-20T08:41:50;10.50;99.90
48876;DHT22;34689;51.644;5.618;2022-12-20T08:44:15;10.40;99.90
48876;DHT22;34689;51.644;5.618;2022-12-20T08:46:41;10.40;99.90
48876;DHT22;34689;51.644;5.618;2022-12-20T08:49:06;10.40;99.90
48876;DHT22;34689;51.644;5.618;2022-12-20T08:51:32;10.40;99.90
48876;DHT22;34689;51.644;5.618;2022-12-20T08:53:58;10.40;99.90
48876;DHT22;34689;51.644;5.618;2022-12-20T08:56:24;10.40;99.90
48876;DHT22;34689;51.644;5.618;2022-12-20T08:58:49;10.30;99.90
48876;DHT22;34689;51.644;5.618;2022-12-20T09:01:17;10.30;99.90
48876;DHT22;34689;51.644;5.618;2022-12-20T09:03:44;10.30;99.90
48876;DHT22;34689;51.644;5.618;2022-12-20T09:06:15;10.30;99.90
48876;DHT22;34689;51.644;5.618;2022-12-20T09:08:42;10.30;99.90
48876;DHT22;34689;51.644;5.618;2022-12-20T09:11:14;10.20;99.90
48876;DHT22;34689;51.644;5.618;2022-12-20T09:13:45;10.20;99.90
48876;DHT22;34689;51.644;5.618;2022-12-20T09:16:13;10.20;99.90
48876;DHT22;34689;51.644;5.618;2022-12-20T09:18:39;10.20;99.90
48876;DHT22;34689;51.644;5.618;2022-12-20T09:21:06;10.20;99.90
48876;DHT22;34689;51.644;5.618;2022-12-20T09:23:33;10.10;99.90
48876;DHT22;34689;51.644;5.618;2022-12-20T09:26:08;10.10;99.90
48876;DHT22;34689;51.644;5.618;2022-12-20T09:28:35;10.10;99.90
48876;DHT22;34689;51.644;5.618;2022-12-20T09:31:02;10.00;99.90
48876;DHT22;34689;51.644;5.618;2022-12-20T09:33:29;10.00;99.90
48876;DHT22;34689;51.644;5.618;2022-12-20T09:35:55;10.00;99.90
48876;DHT22;34689;51.644;5.618;2022-12-20T09:38:21;10.00;99.90
48876;DHT22;34689;51.644;5.618;2022-12-20T09:40:50;10.00;99.90
48876;DHT22;34689;51.644;5.618;2022-12-20T09:43:17;10.00;99.90
48876;DHT22;34689;51.644;5.618;2022-12-20T09:45:46;10.00;99.90
48876;DHT22;34689;51.644;5.618;2022-12-20T09:48:19;10.00;99.90
48876;DHT22;34689;51.644;5.618;2022-12-20T09:56:14;10.10;99.90
48876;DHT22;34689;51.644;5.618;2022-12-20T09:59:05;10.10;99.90
48876;DHT22;34689;51.644;5.618;2022-12-20T10:01:34;10.10;99.90
48876;DHT22;34689;51.644;5.618;2022-12-20T10:04:30;10.10;99.90
48876;DHT22;34689;51.644;5.618;2022-12-20T10:12:58;10.10;99.90
48876;DHT22;34689;51.644;5.618;2022-12-20T10:15:41;10.10;99.90
48876;DHT22;34689;51.644;5.618;2022-12-20T10:23:55;10.20;99.90
48876;DHT22;34689;51.644;5.618;2022-12-20T10:26:22;10.20;99.90
48876;DHT22;34689;51.644;5.618;2022-12-20T10:28:48;10.20;99.90
48876;DHT22;34689;51.644;5.618;2022-12-20T10:31:17;10.20;99.90
48876;DHT22;34689;51.644;5.618;2022-12-20T10:33:43;10.20;99.90
48876;DHT22;34689;51.644;5.618;2022-12-20T10:36:26;10.20;99.90
48876;DHT22;34689;51.644;5.618;2022-12-20T10:38:53;10.30;99.90
48876;DHT22;34689;51.644;5.618;2022-12-20T10:46:51;10.40;99.90
48876;DHT22;34689;51.644;5.618;2022-12-20T10:51:55;10.40;99.90
48876;DHT22;34689;51.644;5.618;2022-12-20T10:54:32;10.50;99.90
48876;DHT22;34689;51.644;5.618;2022-12-20T10:57:02;10.40;99.90
48876;DHT22;34689;51.644;5.618;2022-12-20T10:59:35;10.50;99.90
48876;DHT22;34689;51.644;5.618;2022-12-20T11:02:25;10.50;99.90
48876;DHT22;34689;51.644;5.618;2022-12-20T11:04:58;10.50;99.90
48876;DHT22;34689;51.644;5.618;2022-12-20T11:07:27;10.50;99.90
48876;DHT22;34689;51.644;5.618;2022-12-20T11:10:18;10.50;99.90
48876;DHT22;34689;51.644;5.618;2022-12-20T11:12:58;10.40;99.90
48876;DHT22;34689;51.644;5.618;2022-12-20T11:15:35;10.40;99.90
48876;DHT22;34689;51.644;5.618;2022-12-20T11:37:25;10.40;99.90
48876;DHT22;34689;51.644;5.618;2022-12-20T11:48:21;10.30;99.90
48876;DHT22;34689;51.644;5.618;2022-12-20T11:51:03;10.30;99.90
48876;DHT22;34689;51.644;5.618;2022-12-20T11:53:40;10.30;99.90
48876;DHT22;34689;51.644;5.618;2022-12-20T11:56:35;10.30;99.90
48876;DHT22;34689;51.644;5.618;2022-12-20T12:04:24;10.30;99.90
48876;DHT22;34689;51.644;5.618;2022-12-20T12:07:11;10.30;99.90
48876;DHT22;34689;51.644;5.618;2022-12-20T12:15:27;10.30;99.90
48876;DHT22;34689;51.644;5.618;2022-12-20T12:18:00;10.30;99.90
48876;DHT22;34689;51.644;5.618;2022-12-20T12:23:31;10.30;99.90
48876;DHT22;34689;51.644;5.618;2022-12-20T12:26:15;10.30;99.90
48876;DHT22;34689;51.644;5.618;2022-12-20T12:28:43;10.30;99.90
48876;DHT22;34689;51.644;5.618;2022-12-20T12:31:14;10.30;99.90
48876;DHT22;34689;51.644;5.618;2022-12-20T12:39:33;10.30;99.90
48876;DHT22;34689;51.644;5.618;2022-12-20T12:42:11;10.30;99.90
48876;DHT22;34689;51.644;5.618;2022-12-20T12:47:22;10.30;99.90
48876;DHT22;34689;51.644;5.618;2022-12-20T12:49:50;10.30;99.90
48876;DHT22;34689;51.644;5.618;2022-12-20T12:52:53;10.30;99.90
48876;DHT22;34689;51.644;5.618;2022-12-20T12:58:21;10.30;99.90
48876;DHT22;34689;51.644;5.618;2022-12-20T13:01:03;10.30;99.90
48876;DHT22;34689;51.644;5.618;2022-12-20T13:04:09;10.30;99.90
48876;DHT22;34689;51.644;5.618;2022-12-20T13:11:39;10.30;99.90
48876;DHT22;34689;51.644;5.618;2022-12-20T13:16:53;10.30;99.90
48876;DHT22;34689;51.644;5.618;2022-12-20T13:21:59;10.30;99.90
48876;DHT22;34689;51.644;5.618;2022-12-20T13:27:21;10.30;99.90
48876;DHT22;34689;51.644;5.618;2022-12-20T13:43:14;10.30;99.90
48876;DHT22;34689;51.644;5.618;2022-12-20T13:46:05;10.30;99.90
48876;DHT22;34689;51.644;5.618;2022-12-20T13:51:04;10.30;99.90
48876;DHT22;34689;51.644;5.618;2022-12-20T13:53:32;10.30;99.90
48876;DHT22;34689;51.644;5.618;2022-12-20T13:55:58;10.30;99.90
48876;DHT22;34689;51.644;5.618;2022-12-20T13:58:45;10.30;99.90
48876;DHT22;34689;51.644;5.618;2022-12-20T14:01:12;10.30;99.90
48876;DHT22;34689;51.644;5.618;2022-12-20T14:03:44;10.30;99.90
48876;DHT22;34689;51.644;5.618;2022-12-20T14:06:12;10.30;99.90
48876;DHT22;34689;51.644;5.618;2022-12-20T14:08:45;10.30;99.90
48876;DHT22;34689;51.644;5.618;2022-12-20T14:11:15;10.30;99.90
48876;DHT22;34689;51.644;5.618;2022-12-20T14:13:50;10.20;99.90
48876;DHT22;34689;51.644;5.618;2022-12-20T14:16:18;10.20;99.90
48876;DHT22;34689;51.644;5.618;2022-12-20T14:19:03;10.20;99.90
48876;DHT22;34689;51.644;5.618;2022-12-20T14:21:30;10.20;99.90
48876;DHT22;34689;51.644;5.618;2022-12-20T14:23:57;10.20;99.90
48876;DHT22;34689;51.644;5.618;2022-12-20T14:26:32;10.20;99.90
48876;DHT22;34689;51.644;5.618;2022-12-20T14:29:00;10.20;99.90
48876;DHT22;34689;51.644;5.618;2022-12-20T14:36:30;10.20;99.90
48876;DHT22;34689;51.644;5.618;2022-12-20T14:38:58;10.20;99.90
48876;DHT22;34689;51.644;5.618;2022-12-20T14:41:37;10.20;99.90
48876;DHT22;34689;51.644;5.618;2022-12-20T14:46:33;10.20;99.90
48876;DHT22;34689;51.644;5.618;2022-12-20T14:51:40;10.20;99.90
48876;DHT22;34689;51.644;5.618;2022-12-20T14:54:10;10.20;99.90
48876;DHT22;34689;51.644;5.618;2022-12-20T14:56:36;10.10;99.90
48876;DHT22;34689;51.644;5.618;2022-12-20T14:59:12;10.10;99.90
48876;DHT22;34689;51.644;5.618;2022-12-20T15:01:38;10.10;99.90
48876;DHT22;34689;51.644;5.618;2022-12-20T15:04:32;10.10;99.90
48876;DHT22;34689;51.644;5.618;2022-12-20T15:07:01;10.10;99.90
48876;DHT22;34689;51.644;5.618;2022-12-20T15:09:28;10.10;99.90
48876;DHT22;34689;51.644;5.618;2022-12-20T15:11:55;10.10;99.90
48876;DHT22;34689;51.644;5.618;2022-12-20T15:16:52;10.00;99.90
48876;DHT22;34689;51.644;5.618;2022-12-20T15:19:17;10.10;99.90
48876;DHT22;34689;51.644;5.618;2022-12-20T15:21:43;10.00;99.90
48876;DHT22;34689;51.644;5.618;2022-12-20T15:24:18;10.00;99.90
48876;DHT22;34689;51.644;5.618;2022-12-20T15:26:47;10.10;99.90
48876;DHT22;34689;51.644;5.618;2022-12-20T15:29:31;10.10;99.90
48876;DHT22;34689;51.644;5.618;2022-12-20T15:32:18;10.00;99.90
48876;DHT22;34689;51.644;5.618;2022-12-20T15:34:48;10.00;99.90
48876;DHT22;34689;51.644;5.618;2022-12-20T15:37:15;10.00;99.90
48876;DHT22;34689;51.644;5.618;2022-12-20T15:39:41;10.00;99.90
48876;DHT22;34689;51.644;5.618;2022-12-20T15:42:12;10.00;99.90
48876;DHT22;34689;51.644;5.618;2022-12-20T15:44:40;10.00;99.90
48876;DHT22;34689;51.644;5.618;2022-12-20T15:47:12;10.00;99.90
48876;DHT22;34689;51.644;5.618;2022-12-20T15:49:38;10.00;99.90
48876;DHT22;34689;51.644;5.618;2022-12-20T15:52:03;10.00;99.90
48876;DHT22;34689;51.644;5.618;2022-12-20T15:54:32;10.00;99.90
48876;DHT22;34689;51.644;5.618;2022-12-20T15:57:03;10.00;99.90
48876;DHT22;34689;51.644;5.618;2022-12-20T15:59:32;10.00;99.90
48876;DHT22;34689;51.644;5.618;2022-12-20T16:01:57;10.00;99.90
48876;DHT22;34689;51.644;5.618;2022-12-20T16:04:23;10.00;99.90
48876;DHT22;34689;51.644;5.618;2022-12-20T16:06:50;10.00;99.90
48876;DHT22;34689;51.644;5.618;2022-12-20T16:09:18;10.00;99.90
48876;DHT22;34689;51.644;5.618;2022-12-20T16:11:44;10.00;99.90
48876;DHT22;34689;51.644;5.618;2022-12-20T16:14:20;10.00;99.90
48876;DHT22;34689;51.644;5.618;2022-12-20T16:16:46;10.00;99.90
48876;DHT22;34689;51.644;5.618;2022-12-20T16:19:14;10.00;99.90
48876;DHT22;34689;51.644;5.618;2022-12-20T16:21:48;10.00;99.90
48876;DHT22;34689;51.644;5.618;2022-12-20T16:24:17;10.00;99.90
48876;DHT22;34689;51.644;5.618;2022-12-20T16:26:43;10.00;99.90
48876;DHT22;34689;51.644;5.618;2022-12-20T16:29:09;9.90;99.90
48876;DHT22;34689;51.644;5.618;2022-12-20T16:31:36;10.00;99.90
48876;DHT22;34689;51.644;5.618;2022-12-20T16:34:11;9.90;99.90
48876;DHT22;34689;51.644;5.618;2022-12-20T16:36:36;9.90;99.90
48876;DHT22;34689;51.644;5.618;2022-12-20T16:39:03;9.90;99.90
48876;DHT22;34689;51.644;5.618;2022-12-20T16:41:30;9.90;99.90
48876;DHT22;34689;51.644;5.618;2022-12-20T16:43:59;9.90;99.90
48876;DHT22;34689;51.644;5.618;2022-12-20T16:46:28;9.90;99.90
48876;DHT22;34689;51.644;5.618;2022-12-20T16:48:59;9.90;99.90
48876;DHT22;34689;51.644;5.618;2022-12-20T16:54:09;9.90;99.90
48876;DHT22;34689;51.644;5.618;2022-12-20T16:56:36;9.90;99.90
48876;DHT22;34689;51.644;5.618;2022-12-20T16:59:02;9.90;99.90
48876;DHT22;34689;51.644;5.618;2022-12-20T17:01:31;9.90;99.90
48876;DHT22;34689;51.644;5.618;2022-12-20T17:03:57;9.90;99.90
48876;DHT22;34689;51.644;5.618;2022-12-20T17:06:23;9.90;99.90
48876;DHT22;34689;51.644;5.618;2022-12-20T17:08:49;9.90;99.90
48876;DHT22;34689;51.644;5.618;2022-12-20T17:11:15;9.90;99.90
48876;DHT22;34689;51.644;5.618;2022-12-20T17:13:43;9.90;99.90
48876;DHT22;34689;51.644;5.618;2022-12-20T17:16:13;9.90;99.90
48876;DHT22;34689;51.644;5.618;2022-12-20T17:18:43;9.90;99.90
48876;DHT22;34689;51.644;5.618;2022-12-20T17:23:44;9.90;99.90
48876;DHT22;34689;51.644;5.618;2022-12-20T17:26:15;9.90;99.90
48876;DHT22;34689;51.644;5.618;2022-12-20T17:28:41;9.90;99.90
48876;DHT22;34689;51.644;5.618;2022-12-20T17:31:26;9.90;99.90
48876;DHT22;34689;51.644;5.618;2022-12-20T17:33:53;9.90;99.90
48876;DHT22;34689;51.644;5.618;2022-12-20T17:36:19;9.90;99.90
48876;DHT22;34689;51.644;5.618;2022-12-20T17:38:45;9.90;99.90
48876;DHT22;34689;51.644;5.618;2022-12-20T17:41:28;9.90;99.90
48876;DHT22;34689;51.644;5.618;2022-12-20T17:43:56;9.90;99.90
48876;DHT22;34689;51.644;5.618;2022-12-20T17:46:23;9.90;99.90
48876;DHT22;34689;51.644;5.618;2022-12-20T17:48:49;9.90;99.90
48876;DHT22;34689;51.644;5.618;2022-12-20T17:51:19;9.90;99.90
48876;DHT22;34689;51.644;5.618;2022-12-20T17:53:46;9.90;99.90
48876;DHT22;34689;51.644;5.618;2022-12-20T17:56:24;9.90;99.90
48876;DHT22;34689;51.644;5.618;2022-12-20T17:58:50;9.90;99.90
48876;DHT22;34689;51.644;5.618;2022-12-20T18:01:17;9.90;99.90
48876;DHT22;34689;51.644;5.618;2022-12-20T18:03:43;9.90;99.90
48876;DHT22;34689;51.644;5.618;2022-12-20T18:06:09;9.90;99.90
48876;DHT22;34689;51.644;5.618;2022-12-20T18:08:35;9.90;99.90
48876;DHT22;34689;51.644;5.618;2022-12-20T18:11:01;9.90;99.90